createdAt,value
2023-02-19T00:01:03.785Z,62.79
2023-02-19T00:03:31.528Z,62.20
2023-02-19T00:06:02.368Z,62.77
2023-02-19T00:08:30.911Z,62.37
2023-02-19T00:11:03.114Z,62.30
2023-02-19T00:13:31.156Z,62.31
2023-02-19T00:15:58.758Z,62.30
2023-02-19T00:18:26.478Z,62.31
2023-02-19T00:20:54.035Z,62.62
2023-02-19T00:23:21.678Z,62.39
2023-02-19T00:25:49.257Z,62.97
2023-02-19T00:28:19.278Z,63.15
2023-02-19T00:30:46.852Z,62.57
2023-02-19T00:33:14.723Z,62.87
2023-02-19T00:35:42.461Z,63.00
2023-02-19T00:38:11.053Z,62.66
2023-02-19T00:40:39.506Z,63.11
2023-02-19T00:43:07.075Z,63.00
2023-02-19T00:45:36.139Z,62.95
2023-02-19T00:48:03.737Z,62.53
2023-02-19T00:50:31.368Z,63.15
2023-02-19T00:53:03.285Z,62.87
2023-02-19T00:55:30.886Z,63.09
2023-02-19T00:57:58.546Z,63.03
2023-02-19T01:00:26.233Z,62.71
2023-02-19T01:02:55.279Z,62.86
2023-02-19T01:05:22.900Z,62.99
2023-02-19T01:07:50.544Z,63.32
2023-02-19T01:10:18.159Z,63.07
2023-02-19T01:12:45.780Z,62.55
2023-02-19T01:15:13.360Z,62.83
2023-02-19T01:17:40.999Z,63.14
2023-02-19T01:20:11.757Z,63.20
2023-02-19T01:22:40.513Z,62.90
2023-02-19T01:25:08.417Z,63.11
2023-02-19T01:27:48.672Z,63.02
2023-02-19T01:30:16.311Z,62.93
2023-02-19T01:32:43.961Z,62.94
2023-02-19T01:35:12.916Z,62.94
2023-02-19T01:37:40.610Z,63.05
2023-02-19T01:40:08.762Z,62.65
2023-02-19T01:42:36.440Z,62.73
2023-02-19T01:45:28.443Z,62.58
2023-02-19T01:48:00.128Z,62.64
2023-02-19T01:50:35.298Z,62.36
2023-02-19T01:53:07.091Z,62.49
2023-02-19T01:55:35.090Z,62.11
2023-02-19T01:58:02.927Z,63.10
2023-02-19T02:00:30.831Z,62.62
2023-02-19T02:02:58.919Z,62.34
2023-02-19T02:05:43.625Z,62.27
2023-02-19T02:08:29.319Z,62.34
2023-02-19T02:10:56.877Z,63.13
2023-02-19T02:13:28.728Z,62.72
2023-02-19T02:16:01.403Z,62.85
2023-02-19T02:18:40.546Z,62.63
2023-02-19T02:21:26.317Z,62.55
2023-02-19T02:24:06.477Z,62.38
2023-02-19T02:26:43.188Z,62.36
2023-02-19T02:29:25.941Z,62.49
2023-02-19T02:31:55.564Z,62.47
2023-02-19T02:34:25.407Z,62.79
2023-02-19T02:36:54.324Z,62.31
2023-02-19T02:39:24.887Z,62.85
2023-02-19T02:42:11.954Z,62.69
2023-02-19T02:44:41.872Z,62.25
2023-02-19T02:47:30.826Z,61.62
2023-02-19T02:50:05.990Z,61.76
2023-02-19T02:52:52.172Z,61.90
2023-02-19T02:55:19.763Z,61.80
2023-02-19T02:57:47.539Z,61.81
2023-02-19T03:00:15.311Z,61.37
2023-02-19T03:02:43.304Z,61.99
2023-02-19T03:05:31.236Z,62.04
2023-02-19T03:08:00.990Z,61.94
2023-02-19T03:10:31.854Z,61.43
2023-02-19T03:13:16.985Z,61.81
2023-02-19T03:16:03.539Z,61.45
2023-02-19T03:18:50.066Z,61.63
2023-02-19T03:21:18.008Z,61.58
2023-02-19T03:24:02.710Z,61.60
2023-02-19T03:26:30.470Z,61.56
2023-02-19T03:29:15.449Z,61.94
2023-02-19T03:31:43.062Z,61.40
2023-02-19T03:34:14.651Z,61.86
2023-02-19T03:36:45.074Z,61.97
2023-02-19T03:39:14.090Z,61.47
2023-02-19T03:41:44.532Z,62.03
2023-02-19T03:44:13.625Z,61.37
2023-02-19T03:46:45.018Z,61.48
2023-02-19T03:49:16.923Z,61.83
2023-02-19T03:51:45.232Z,61.63
2023-02-19T03:54:14.156Z,61.10
2023-02-19T03:56:45.047Z,61.46
2023-02-19T03:59:14.209Z,61.51
2023-02-19T04:01:43.296Z,61.44
2023-02-19T04:04:16.429Z,60.80
2023-02-19T04:06:46.067Z,61.02
2023-02-19T04:09:13.886Z,61.28
2023-02-19T04:11:41.462Z,60.71
2023-02-19T04:14:11.069Z,60.99
2023-02-19T04:16:39.919Z,61.06
2023-02-19T04:19:08.994Z,60.81
2023-02-19T04:21:39.079Z,60.45
2023-02-19T04:24:08.616Z,61.12
2023-02-19T04:26:36.163Z,60.87
2023-02-19T04:29:03.842Z,60.89
2023-02-19T04:31:31.673Z,60.87
2023-02-19T04:33:59.415Z,61.44
2023-02-19T04:36:27.052Z,60.98
2023-02-19T04:38:56.131Z,61.59
2023-02-19T04:41:23.750Z,61.44
2023-02-19T04:43:51.319Z,60.91
2023-02-19T04:46:19.012Z,61.27
2023-02-19T04:48:46.716Z,60.74
2023-02-19T04:51:14.327Z,60.69
2023-02-19T04:53:42.736Z,60.65
2023-02-19T04:56:15.062Z,60.70
2023-02-19T04:58:42.823Z,60.53
2023-02-19T05:01:11.776Z,61.48
2023-02-19T05:03:39.647Z,60.96
2023-02-19T05:06:08.877Z,61.17
2023-02-19T05:08:36.629Z,60.94
2023-02-19T05:11:06.163Z,60.82
2023-02-19T05:13:35.192Z,60.73
2023-02-19T05:16:06.198Z,61.04
2023-02-19T05:18:34.493Z,61.23
2023-02-19T05:21:02.273Z,61.08
2023-02-19T05:23:29.866Z,61.05
2023-02-19T05:25:57.494Z,61.13
2023-02-19T05:28:28.723Z,61.51
2023-02-19T05:30:57.922Z,61.52
2023-02-19T05:33:26.630Z,61.12
2023-02-19T05:35:55.382Z,60.97
2023-02-19T05:38:24.644Z,60.77
2023-02-19T05:40:52.449Z,60.77
2023-02-19T05:43:20.008Z,60.47
2023-02-19T05:45:47.586Z,60.78
2023-02-19T05:48:16.745Z,61.01
2023-02-19T05:53:18.121Z,61.00
2023-02-19T05:55:45.672Z,60.99
2023-02-19T05:58:13.247Z,60.70
2023-02-19T06:00:40.880Z,60.96
2023-02-19T06:03:08.520Z,60.36
2023-02-19T06:05:37.983Z,60.78
2023-02-19T06:08:06.005Z,60.97
2023-02-19T06:10:33.544Z,60.54
2023-02-19T06:13:01.146Z,60.43
2023-02-19T06:15:28.959Z,60.71
2023-02-19T06:17:56.625Z,60.44
2023-02-19T06:20:26.046Z,60.53
2023-02-19T06:22:55.359Z,60.56
2023-02-19T06:25:22.941Z,60.69
2023-02-19T06:27:50.659Z,60.33
2023-02-19T06:30:18.451Z,60.96
2023-02-19T06:32:46.076Z,60.27
2023-02-19T06:35:13.718Z,60.51
2023-02-19T06:37:41.345Z,60.43
2023-02-19T06:40:11.105Z,61.01
2023-02-19T06:42:38.722Z,60.99
2023-02-19T06:45:06.896Z,60.71
2023-02-19T06:47:34.860Z,60.93
2023-02-19T06:50:02.482Z,60.45
2023-02-19T06:52:30.124Z,60.88
2023-02-19T06:54:57.774Z,60.74
2023-02-19T06:57:26.758Z,60.56
2023-02-19T06:59:54.609Z,61.04
2023-02-19T07:02:22.231Z,60.67
2023-02-19T07:04:49.809Z,60.75
2023-02-19T07:07:17.419Z,60.59
2023-02-19T07:09:45.013Z,61.09
2023-02-19T07:12:12.986Z,60.81
2023-02-19T07:14:42.214Z,60.98
2023-02-19T07:17:09.813Z,60.65
2023-02-19T07:19:37.598Z,60.93
2023-02-19T07:22:05.221Z,60.67
2023-02-19T07:24:32.787Z,60.90
2023-02-19T07:27:00.446Z,60.50
2023-02-19T07:29:28.049Z,60.70
2023-02-19T07:31:57.108Z,60.39
2023-02-19T07:34:24.981Z,60.60
2023-02-19T07:36:54.614Z,61.07
2023-02-19T07:39:22.182Z,60.86
2023-02-19T07:41:54.988Z,60.45
2023-02-19T07:44:22.586Z,60.76
2023-02-19T07:46:50.363Z,60.59
2023-02-19T07:49:20.781Z,60.82
2023-02-19T07:52:14.589Z,60.85
2023-02-19T07:54:42.281Z,60.41
2023-02-19T07:57:09.954Z,60.83
2023-02-19T07:59:37.575Z,60.78
2023-02-19T08:02:23.121Z,60.62
2023-02-19T08:04:52.219Z,60.86
2023-02-19T08:07:21.397Z,60.23
2023-02-19T08:10:10.592Z,60.32
2023-02-19T08:12:55.635Z,60.27
2023-02-19T08:15:29.393Z,60.53
2023-02-19T08:17:57.050Z,60.25
2023-02-19T08:20:26.973Z,60.59
2023-02-19T08:22:54.758Z,60.18
2023-02-19T08:25:25.863Z,60.37
2023-02-19T08:27:53.526Z,60.21
2023-02-19T08:30:21.283Z,60.00
2023-02-19T08:32:49.139Z,60.13
2023-02-19T08:35:17.021Z,60.03
2023-02-19T08:38:01.207Z,59.64
2023-02-19T08:40:29.358Z,59.83
2023-02-19T08:42:57.065Z,60.21
2023-02-19T08:45:24.775Z,60.03
2023-02-19T08:47:52.450Z,59.59
2023-02-19T08:50:23.041Z,59.51
2023-02-19T08:52:54.695Z,59.62
2023-02-19T08:55:22.356Z,59.89
2023-02-19T08:57:50.685Z,59.69
2023-02-19T09:00:18.537Z,59.69
2023-02-19T09:02:46.395Z,59.71
2023-02-19T09:05:14.129Z,59.24
2023-02-19T09:07:41.928Z,59.11
2023-02-19T09:10:11.760Z,58.54
2023-02-19T09:12:40.552Z,58.61
2023-02-19T09:15:09.098Z,58.71
2023-02-19T09:17:36.990Z,58.30
2023-02-19T09:20:24.046Z,57.95
2023-02-19T09:22:58.957Z,58.25
2023-02-19T09:25:32.018Z,58.45
2023-02-19T09:28:02.724Z,58.46
2023-02-19T09:30:35.092Z,58.16
2023-02-19T09:33:08.102Z,58.18
2023-02-19T09:35:40.577Z,58.06
2023-02-19T09:38:13.607Z,58.13
2023-02-19T09:40:49.893Z,58.75
2023-02-19T09:43:22.782Z,58.47
2023-02-19T09:46:00.132Z,58.49
2023-02-19T09:48:48.292Z,58.21
2023-02-19T09:51:25.737Z,57.77
2023-02-19T09:54:33.461Z,57.18
2023-02-19T09:57:12.940Z,57.79
2023-02-19T10:02:42.670Z,57.72
2023-02-19T10:05:17.180Z,57.60
2023-02-19T10:07:50.822Z,58.31
2023-02-19T10:10:35.537Z,58.05
2023-02-19T10:13:23.173Z,57.59
2023-02-19T10:15:59.004Z,57.71
2023-02-19T10:18:30.641Z,58.12
2023-02-19T10:21:06.748Z,58.56
2023-02-19T10:23:39.645Z,58.10
2023-02-19T10:26:08.275Z,58.01
2023-02-19T10:28:38.291Z,58.30
2023-02-19T10:31:20.806Z,58.30
2023-02-19T10:33:50.858Z,58.50
2023-02-19T10:36:33.500Z,58.43
2023-02-19T10:39:02.671Z,58.81
2023-02-19T10:41:37.513Z,58.98
2023-02-19T10:44:10.519Z,58.57
2023-02-19T10:46:41.825Z,59.11
2023-02-19T10:49:28.032Z,57.94
2023-02-19T10:51:56.851Z,56.71
2023-02-19T10:54:27.109Z,55.70
2023-02-19T10:56:55.147Z,55.33
2023-02-19T10:59:26.977Z,55.07
2023-02-19T11:01:58.491Z,55.44
2023-02-19T11:04:27.397Z,54.88
2023-02-19T11:06:55.452Z,54.88
2023-02-19T11:09:28.716Z,54.34
2023-02-19T11:11:57.844Z,53.60
2023-02-19T11:15:14.860Z,52.54
2023-02-19T11:17:42.640Z,51.68
2023-02-19T11:20:17.629Z,50.95
2023-02-19T11:22:46.816Z,50.16
2023-02-19T11:25:20.267Z,50.46
2023-02-19T11:27:55.516Z,50.11
2023-02-19T11:30:36.765Z,50.90
2023-02-19T11:33:20.049Z,51.22
2023-02-19T11:35:48.111Z,51.62
2023-02-19T11:38:16.756Z,52.02
2023-02-19T11:40:46.414Z,52.33
2023-02-19T11:43:26.048Z,52.59
2023-02-19T11:45:58.889Z,53.12
2023-02-19T11:48:37.191Z,53.23
2023-02-19T11:51:21.276Z,52.95
2023-02-19T11:53:50.008Z,53.16
2023-02-19T11:56:19.356Z,53.24
2023-02-19T11:58:53.218Z,53.46
2023-02-19T12:01:25.232Z,53.87
2023-02-19T12:04:03.764Z,53.90
2023-02-19T12:06:32.762Z,54.16
2023-02-19T12:09:21.436Z,53.86
2023-02-19T12:11:59.537Z,54.03
2023-02-19T12:14:52.265Z,53.65
2023-02-19T12:17:30.282Z,53.74
2023-02-19T12:20:03.242Z,54.25
2023-02-19T12:22:31.592Z,53.97
2023-02-19T12:25:27.609Z,53.70
2023-02-19T12:28:13.104Z,54.51
2023-02-19T12:30:49.359Z,55.33
2023-02-19T12:33:40.218Z,54.87
2023-02-19T12:36:11.636Z,55.20
2023-02-19T12:38:42.738Z,55.03
2023-02-19T12:41:21.609Z,55.11
2023-02-19T12:43:54.091Z,55.44
2023-02-19T12:46:23.418Z,54.81
2023-02-19T12:48:54.077Z,54.62
2023-02-19T12:51:23.425Z,54.59
2023-02-19T12:53:52.989Z,54.54
2023-02-19T12:56:23.926Z,55.05
2023-02-19T12:58:53.374Z,54.69
2023-02-19T13:01:23.394Z,54.70
2023-02-19T13:03:54.438Z,55.03
2023-02-19T13:06:27.987Z,55.09
2023-02-19T13:09:06.430Z,54.89
2023-02-19T13:11:36.769Z,54.71
2023-02-19T13:14:06.005Z,54.36
2023-02-19T13:16:34.932Z,53.99
2023-02-19T13:19:04.813Z,54.16
2023-02-19T13:21:47.404Z,54.83
2023-02-19T13:24:17.352Z,54.48
2023-02-19T13:27:05.787Z,54.53
2023-02-19T13:29:55.743Z,54.56
2023-02-19T13:32:30.756Z,54.46
2023-02-19T13:35:15.438Z,55.01
2023-02-19T13:37:43.146Z,55.12
2023-02-19T13:40:20.905Z,54.76
2023-02-19T13:42:52.541Z,54.84
2023-02-19T13:45:22.696Z,55.29
2023-02-19T13:47:58.534Z,55.12
2023-02-19T13:50:28.249Z,54.89
2023-02-19T13:52:55.852Z,55.06
2023-02-19T13:55:51.863Z,54.84
2023-02-19T13:58:57.871Z,54.89
2023-02-19T14:02:14.397Z,55.17
2023-02-19T14:04:44.560Z,55.13
2023-02-19T14:08:03.778Z,54.79
2023-02-19T14:11:02.298Z,54.57
2023-02-19T14:14:09.580Z,54.08
2023-02-19T14:17:17.519Z,54.01
2023-02-19T14:19:56.081Z,53.95
2023-02-19T14:23:02.369Z,53.87
2023-02-19T14:25:46.542Z,54.31
2023-02-19T14:28:25.916Z,54.50
2023-02-19T14:30:54.334Z,54.06
2023-02-19T14:33:23.210Z,53.77
2023-02-19T14:35:53.810Z,53.87
2023-02-19T14:38:22.987Z,53.97
2023-02-19T14:40:50.725Z,53.80
2023-02-19T14:43:21.959Z,53.50
2023-02-19T14:45:50.984Z,54.01
2023-02-19T14:48:20.979Z,53.79
2023-02-19T14:50:49.923Z,53.85
2023-02-19T14:53:17.652Z,53.82
2023-02-19T14:55:46.028Z,53.49
2023-02-19T14:58:14.989Z,53.39
2023-02-19T15:00:44.378Z,53.90
2023-02-19T15:03:28.263Z,53.72
2023-02-19T15:05:57.346Z,53.59
2023-02-19T15:08:28.385Z,53.33
2023-02-19T15:10:56.992Z,53.82
2023-02-19T15:13:26.334Z,53.66
2023-02-19T15:15:56.015Z,53.46
2023-02-19T15:18:25.522Z,53.45
2023-02-19T15:20:53.617Z,53.73
2023-02-19T15:23:23.194Z,54.01
2023-02-19T15:25:53.496Z,53.60
2023-02-19T15:28:23.374Z,53.61
2023-02-19T15:30:51.026Z,53.89
2023-02-19T15:33:20.641Z,54.04
2023-02-19T15:35:49.222Z,54.00
2023-02-19T15:38:16.848Z,53.91
2023-02-19T15:40:45.411Z,53.98
2023-02-19T15:43:19.287Z,54.03
2023-02-19T15:45:46.994Z,53.57
2023-02-19T15:48:15.776Z,54.10
2023-02-19T15:50:46.291Z,54.34
2023-02-19T15:53:15.226Z,54.34
2023-02-19T15:55:44.063Z,53.79
2023-02-19T15:58:15.457Z,53.91
2023-02-19T16:00:46.710Z,54.84
2023-02-19T16:03:17.044Z,54.99
2023-02-19T16:05:46.182Z,55.30
2023-02-19T16:08:18.965Z,55.80
2023-02-19T16:10:56.827Z,55.88
2023-02-19T16:13:25.428Z,56.01
2023-02-19T16:15:58.844Z,56.09
2023-02-19T16:18:26.519Z,56.82
2023-02-19T16:20:55.563Z,56.67
2023-02-19T16:23:25.298Z,56.66
2023-02-19T16:25:58.870Z,56.83
2023-02-19T16:28:27.242Z,56.56
2023-02-19T16:30:58.394Z,56.91
2023-02-19T16:33:39.374Z,56.70
2023-02-19T16:36:26.339Z,56.94
2023-02-19T16:39:01.828Z,57.08
2023-02-19T16:41:29.443Z,57.24
2023-02-19T16:43:57.113Z,57.41
2023-02-19T16:46:24.673Z,56.93
2023-02-19T16:48:52.865Z,57.00
2023-02-19T16:51:24.903Z,57.28
2023-02-19T16:53:52.567Z,56.80
2023-02-19T16:56:22.860Z,57.28
2023-02-19T16:58:50.608Z,57.30
2023-02-19T17:01:18.714Z,57.14
2023-02-19T17:03:46.932Z,57.18
2023-02-19T17:06:14.646Z,57.50
2023-02-19T17:08:43.685Z,57.50
2023-02-19T17:11:15.000Z,56.72
2023-02-19T17:13:42.776Z,55.86
2023-02-19T17:16:13.693Z,55.57
2023-02-19T17:18:41.294Z,55.77
2023-02-19T17:21:30.595Z,55.34
2023-02-19T17:23:59.633Z,54.75
2023-02-19T17:26:34.203Z,54.75
2023-02-19T17:29:02.797Z,53.91
2023-02-19T17:31:30.524Z,54.48
2023-02-19T17:33:58.898Z,54.34
2023-02-19T17:36:30.476Z,54.48
2023-02-19T17:38:59.647Z,54.32
2023-02-19T17:41:27.231Z,54.01
2023-02-19T17:43:55.072Z,54.01
2023-02-19T17:46:23.654Z,54.38
2023-02-19T17:48:51.492Z,54.08
2023-02-19T17:53:52.966Z,54.08
2023-02-19T17:56:23.007Z,53.85
2023-02-19T17:58:50.800Z,54.20
2023-02-19T18:01:18.554Z,53.93
2023-02-19T18:03:46.188Z,54.12
2023-02-19T18:06:13.889Z,54.08
2023-02-19T18:08:43.634Z,54.44
2023-02-19T18:11:11.468Z,54.21
2023-02-19T18:13:40.593Z,54.53
2023-02-19T18:16:09.783Z,54.40
2023-02-19T18:18:37.552Z,54.38
2023-02-19T18:21:05.606Z,54.72
2023-02-19T18:23:33.258Z,54.65
2023-02-19T18:26:00.884Z,54.72
2023-02-19T18:28:28.464Z,54.73
2023-02-19T18:30:57.542Z,54.94
2023-02-19T18:33:25.144Z,54.54
2023-02-19T18:35:52.693Z,55.03
2023-02-19T18:38:20.733Z,55.11
2023-02-19T18:40:48.315Z,55.24
2023-02-19T18:43:16.097Z,55.28
2023-02-19T18:45:45.338Z,55.37
2023-02-19T18:48:14.332Z,55.27
2023-02-19T18:50:41.884Z,55.26
2023-02-19T18:53:09.528Z,55.32
2023-02-19T18:55:37.088Z,55.67
2023-02-19T18:58:04.693Z,55.50
2023-02-19T19:00:32.377Z,55.62
2023-02-19T19:03:00.315Z,55.89
2023-02-19T19:05:29.311Z,55.94
2023-02-19T19:07:59.005Z,55.93
2023-02-19T19:10:26.937Z,55.68
2023-02-19T19:12:54.857Z,56.04
2023-02-19T19:15:23.077Z,56.51
2023-02-19T19:17:50.665Z,56.12
2023-02-19T19:20:19.439Z,56.13
2023-02-19T19:22:49.898Z,56.07
2023-02-19T19:25:17.663Z,56.39
2023-02-19T19:27:45.200Z,56.47
2023-02-19T19:30:13.507Z,56.32
2023-02-19T19:32:41.127Z,55.97
2023-02-19T19:35:09.583Z,56.00
2023-02-19T19:37:37.149Z,56.12
2023-02-19T19:40:07.517Z,56.11
2023-02-19T19:42:35.055Z,56.04
2023-02-19T19:45:02.701Z,56.18
2023-02-19T19:47:30.757Z,56.18
2023-02-19T19:49:58.479Z,56.20
2023-02-19T19:52:26.039Z,56.12
2023-02-19T19:54:54.383Z,55.89
2023-02-19T19:57:23.543Z,56.13
2023-02-19T19:59:53.552Z,56.06
2023-02-19T20:02:21.128Z,56.11
2023-02-19T20:04:48.730Z,56.32
2023-02-19T20:07:16.394Z,55.71
2023-02-19T20:09:47.847Z,55.62
2023-02-19T20:12:17.828Z,55.78
2023-02-19T20:14:47.073Z,55.58
2023-02-19T20:17:14.771Z,55.38
2023-02-19T20:19:42.492Z,55.51
2023-02-19T20:22:10.124Z,55.27
2023-02-19T20:24:37.816Z,55.34
2023-02-19T20:27:05.439Z,55.15
2023-02-19T20:29:35.066Z,55.46
2023-02-19T20:32:04.370Z,54.78
2023-02-19T20:34:31.979Z,55.07
2023-02-19T20:36:59.548Z,54.78
2023-02-19T20:39:29.144Z,54.62
2023-02-19T20:41:57.510Z,54.73
2023-02-19T20:44:25.445Z,54.70
2023-02-19T20:46:53.134Z,54.70
2023-02-19T20:49:23.627Z,54.41
2023-02-19T20:51:53.186Z,54.34
2023-02-19T20:54:21.099Z,54.00
2023-02-19T20:56:49.367Z,54.06
2023-02-19T20:59:17.415Z,54.55
2023-02-19T21:01:45.093Z,54.18
2023-02-19T21:04:12.725Z,54.18
2023-02-19T21:06:41.797Z,53.83
2023-02-19T21:09:09.411Z,53.92
2023-02-19T21:11:37.013Z,53.98
2023-02-19T21:14:04.629Z,53.81
2023-02-19T21:16:32.878Z,53.63
2023-02-19T21:19:00.495Z,53.82
2023-02-19T21:21:30.082Z,53.93
2023-02-19T21:23:59.807Z,53.81
2023-02-19T21:26:33.765Z,53.39
2023-02-19T21:29:01.403Z,53.67
2023-02-19T21:31:36.684Z,53.65
2023-02-19T21:34:05.522Z,53.38
2023-02-19T21:36:33.111Z,53.54
2023-02-19T21:39:02.304Z,53.67
2023-02-19T21:41:29.854Z,53.47
2023-02-19T21:43:57.493Z,53.64
2023-02-19T21:46:25.201Z,53.88
2023-02-19T21:48:53.025Z,53.41
2023-02-19T21:51:21.399Z,53.86
2023-02-19T21:53:49.017Z,53.54
2023-02-19T21:56:23.290Z,53.56
2023-02-19T21:58:51.061Z,53.56
2023-02-19T22:01:20.898Z,53.56
2023-02-19T22:03:48.620Z,53.48
2023-02-19T22:06:16.296Z,53.51
2023-02-19T22:08:44.124Z,53.63
2023-02-19T22:11:11.722Z,54.16
2023-02-19T22:13:40.705Z,53.56
2023-02-19T22:16:08.576Z,54.34
2023-02-19T22:18:36.421Z,54.26
2023-02-19T22:21:04.266Z,53.97
2023-02-19T22:23:32.429Z,54.81
2023-02-19T22:26:00.086Z,54.70
2023-02-19T22:28:27.752Z,55.12
2023-02-19T22:30:56.874Z,54.81
2023-02-19T22:33:24.655Z,54.94
2023-02-19T22:35:52.272Z,55.32
2023-02-19T22:38:19.834Z,55.76
2023-02-19T22:40:47.509Z,55.09
2023-02-19T22:43:17.906Z,55.82
2023-02-19T22:45:45.703Z,54.79
2023-02-19T22:48:19.242Z,55.67
2023-02-19T22:50:54.705Z,55.72
2023-02-19T22:53:22.299Z,55.53
2023-02-19T22:55:49.964Z,55.68
2023-02-19T22:58:17.785Z,55.11
2023-02-19T23:00:45.375Z,55.85
2023-02-19T23:03:14.385Z,55.80
2023-02-19T23:05:42.031Z,55.12
2023-02-19T23:08:09.583Z,55.99
2023-02-19T23:10:37.361Z,56.14
2023-02-19T23:13:05.286Z,56.36
2023-02-19T23:15:32.879Z,55.58
2023-02-19T23:18:00.449Z,56.42
2023-02-19T23:20:29.480Z,55.83
2023-02-19T23:22:57.022Z,55.27
2023-02-19T23:25:24.654Z,55.87
2023-02-19T23:27:52.652Z,55.43
2023-02-19T23:30:21.360Z,56.40
2023-02-19T23:32:48.958Z,56.02
2023-02-19T23:35:16.961Z,56.30
2023-02-19T23:37:45.861Z,56.35
2023-02-19T23:40:14.552Z,56.17
2023-02-19T23:42:42.186Z,56.78
2023-02-19T23:45:10.403Z,57.26
2023-02-19T23:47:38.037Z,57.34
2023-02-19T23:50:07.058Z,56.90
2023-02-19T23:52:34.706Z,57.13
2023-02-19T23:55:03.620Z,57.80
2023-02-19T23:57:32.328Z,57.03
2023-02-19T23:59:59.904Z,57.67
